createdAt,value
2018-04-27T00:00:44.214Z,83.97
2018-04-27T00:01:44.402Z,84.36
2018-04-27T00:02:44.612Z,84.83
2018-04-27T00:03:44.823Z,84.45
2018-04-27T00:04:45.001Z,85.21
2018-04-27T00:05:45.196Z,84.92
2018-04-27T00:06:45.395Z,85.30
2018-04-27T00:07:45.597Z,85.11
2018-04-27T00:08:45.831Z,85.40
2018-04-27T00:09:46.014Z,85.21
2018-04-27T00:10:46.199Z,85.11
2018-04-27T00:11:46.371Z,85.59
2018-04-27T00:12:46.573Z,85.97
2018-04-27T00:13:46.774Z,85.40
2018-04-27T00:14:46.972Z,85.30
2018-04-27T00:15:47.162Z,85.11
2018-04-27T00:16:47.359Z,85.59
2018-04-27T00:17:47.567Z,85.40
2018-04-27T00:18:47.769Z,85.68
2018-04-27T00:19:47.966Z,85.87
2018-04-27T00:20:48.151Z,86.35
2018-04-27T00:21:48.336Z,85.78
2018-04-27T00:22:48.527Z,85.97
2018-04-27T00:23:48.730Z,85.87
2018-04-27T00:24:48.927Z,86.07
2018-04-27T00:25:49.112Z,86.16
2018-04-27T00:26:49.286Z,85.68
2018-04-27T00:27:49.466Z,85.30
2018-04-27T00:28:49.674Z,85.40
2018-04-27T00:29:49.880Z,85.30
2018-04-27T00:30:50.065Z,85.30
2018-04-27T00:31:50.247Z,85.30
2018-04-27T00:32:50.423Z,85.49
2018-04-27T00:33:50.609Z,85.59
2018-04-27T00:34:50.797Z,84.83
2018-04-27T00:35:50.997Z,84.92
2018-04-27T00:36:51.195Z,84.83
2018-04-27T00:37:51.381Z,85.02
2018-04-27T00:38:51.624Z,85.11
2018-04-27T00:39:51.808Z,84.74
2018-04-27T00:40:51.996Z,85.30
2018-04-27T00:41:52.186Z,84.92
2018-04-27T00:44:24.021Z,85.11
2018-04-27T00:45:24.186Z,84.92
2018-04-27T00:46:24.385Z,85.11
2018-04-27T00:48:57.718Z,85.21
2018-04-27T00:49:56.392Z,85.02
2018-04-27T00:50:56.571Z,84.83
2018-04-27T00:51:56.771Z,84.92
2018-04-27T00:52:56.966Z,85.11
2018-04-27T00:53:57.160Z,85.21
2018-04-27T00:54:57.339Z,85.49
2018-04-27T00:55:57.528Z,85.49
2018-04-27T00:56:57.732Z,85.26
2018-04-27T00:57:57.985Z,85.45
2018-04-27T00:58:58.088Z,86.30
2018-04-27T00:59:58.280Z,86.30
2018-04-27T01:00:58.481Z,86.59
2018-04-27T01:01:58.692Z,87.16
2018-04-27T01:02:58.896Z,86.87
2018-04-27T01:03:59.074Z,87.06
2018-04-27T01:04:59.273Z,86.97
2018-04-27T01:05:59.450Z,87.25
2018-04-27T01:06:59.629Z,87.54
2018-04-27T01:07:59.811Z,87.82
2018-04-27T01:09:00.016Z,87.92
2018-04-27T01:10:00.202Z,88.10
2018-04-27T01:11:00.409Z,87.63
2018-04-27T01:12:00.587Z,88.10
2018-04-27T01:13:00.765Z,87.82
2018-04-27T01:14:00.952Z,87.63
2018-04-27T01:15:01.165Z,87.16
2018-04-27T01:16:01.343Z,86.87
2018-04-27T01:17:01.521Z,87.25
2018-04-27T01:18:01.724Z,87.54
2018-04-27T01:19:01.907Z,86.97
2018-04-27T01:20:02.082Z,86.87
2018-04-27T01:21:02.266Z,86.68
2018-04-27T01:22:02.455Z,86.30
2018-04-27T01:23:02.719Z,86.40
2018-04-27T01:24:02.842Z,86.78
2018-04-27T01:25:03.040Z,86.87
2018-04-27T01:26:03.234Z,86.30
2018-04-27T01:27:03.422Z,86.78
2018-04-27T01:28:03.612Z,87.35
2018-04-27T01:29:03.799Z,87.45
2018-04-27T01:30:04.005Z,87.54
2018-04-27T01:31:04.197Z,87.63
2018-04-27T01:32:04.381Z,87.54
2018-04-27T01:33:04.572Z,87.54
2018-04-27T01:34:04.766Z,87.54
2018-04-27T01:35:04.963Z,87.54
2018-04-27T01:36:05.165Z,87.54
2018-04-27T01:37:05.359Z,87.35
2018-04-27T01:38:05.543Z,87.73
2018-04-27T01:39:05.744Z,87.63
2018-04-27T01:40:05.936Z,87.63
2018-04-27T01:41:06.117Z,87.92
2018-04-27T01:42:06.322Z,88.10
2018-04-27T01:44:38.417Z,87.92
2018-04-27T01:45:38.584Z,88.20
2018-04-27T01:46:38.769Z,88.10
2018-04-27T01:47:38.971Z,88.10
2018-04-27T01:48:39.177Z,88.10
2018-04-27T01:49:39.368Z,87.92
2018-04-27T01:50:39.554Z,88.10
2018-04-27T01:51:39.742Z,88.20
2018-04-27T01:52:39.941Z,88.25
2018-04-27T01:53:40.137Z,88.29
2018-04-27T01:54:40.326Z,88.01
2018-04-27T01:55:40.524Z,87.68
2018-04-27T01:56:40.713Z,88.25
2018-04-27T01:57:40.895Z,88.54
2018-04-27T01:58:41.094Z,88.06
2018-04-27T01:59:41.279Z,88.06
2018-04-27T02:02:13.423Z,87.97
2018-04-27T02:03:13.591Z,87.97
2018-04-27T02:04:13.768Z,88.06
2018-04-27T02:05:13.953Z,88.63
2018-04-27T02:06:14.161Z,88.06
2018-04-27T02:07:14.366Z,88.82
2018-04-27T02:08:14.564Z,88.44
2018-04-27T02:10:46.673Z,88.82
2018-04-27T02:11:46.841Z,88.73
2018-04-27T02:12:47.046Z,89.11
2018-04-27T02:13:47.229Z,88.92
2018-04-27T02:14:47.446Z,88.73
2018-04-27T02:15:47.655Z,88.92
2018-04-27T02:16:47.836Z,88.82
2018-04-27T02:17:48.023Z,89.11
2018-04-27T02:18:48.222Z,88.54
2018-04-27T02:19:48.406Z,88.63
2018-04-27T02:20:48.582Z,89.11
2018-04-27T02:21:48.770Z,89.11
2018-04-27T02:22:48.973Z,89.11
2018-04-27T02:23:49.159Z,89.01
2018-04-27T02:24:49.354Z,89.48
2018-04-27T02:25:49.530Z,89.01
2018-04-27T02:28:21.624Z,88.92
2018-04-27T02:29:21.796Z,88.82
2018-04-27T02:30:21.972Z,88.25
2018-04-27T02:31:22.161Z,88.25
2018-04-27T02:32:22.368Z,88.63
2018-04-27T02:33:22.569Z,88.54
2018-04-27T02:34:22.767Z,88.73
2018-04-27T02:35:22.960Z,89.20
2018-04-27T02:36:23.138Z,89.29
2018-04-27T02:37:23.334Z,89.20
2018-04-27T02:38:23.537Z,89.01
2018-04-27T02:39:23.732Z,88.92
2018-04-27T02:40:23.957Z,88.73
2018-04-27T02:41:24.158Z,88.44
2018-04-27T02:42:24.353Z,88.82
2018-04-27T02:43:24.534Z,88.82
2018-04-27T02:44:24.712Z,88.82
2018-04-27T02:45:24.917Z,88.92
2018-04-27T02:46:25.090Z,88.63
2018-04-27T02:47:25.300Z,88.82
2018-04-27T02:48:25.483Z,88.63
2018-04-27T02:49:25.686Z,88.63
2018-04-27T02:50:25.877Z,88.92
2018-04-27T02:51:26.084Z,88.92
2018-04-27T02:52:26.263Z,88.54
2018-04-27T02:53:26.453Z,88.25
2018-04-27T02:54:26.643Z,88.92
2018-04-27T02:55:26.835Z,89.39
2018-04-27T02:56:27.040Z,89.48
2018-04-27T02:57:27.216Z,89.29
2018-04-27T02:58:27.408Z,89.48
2018-04-27T02:59:27.600Z,89.11
2018-04-27T03:00:27.785Z,89.29
2018-04-27T03:01:28.007Z,89.20
2018-04-27T03:02:28.192Z,89.48
2018-04-27T03:03:28.395Z,89.29
2018-04-27T03:04:28.582Z,89.67
2018-04-27T03:05:28.758Z,89.67
2018-04-27T03:06:28.965Z,89.86
2018-04-27T03:07:29.155Z,89.67
2018-04-27T03:08:29.345Z,89.58
2018-04-27T03:09:29.549Z,89.77
2018-04-27T03:10:29.733Z,89.58
2018-04-27T03:11:29.935Z,89.86
2018-04-27T03:12:30.120Z,89.86
2018-04-27T03:13:30.310Z,89.91
2018-04-27T03:14:30.494Z,90.48
2018-04-27T03:15:30.697Z,90.48
2018-04-27T03:16:30.879Z,90.39
2018-04-27T03:17:31.054Z,90.39
2018-04-27T03:18:31.266Z,90.86
2018-04-27T03:19:31.453Z,90.95
2018-04-27T03:20:31.658Z,91.05
2018-04-27T03:21:31.834Z,90.48
2018-04-27T03:22:32.038Z,90.86
2018-04-27T03:23:32.217Z,91.14
2018-04-27T03:24:32.417Z,90.77
2018-04-27T03:25:32.612Z,90.39
2018-04-27T03:26:32.789Z,90.39
2018-04-27T03:27:32.971Z,90.29
2018-04-27T03:28:33.173Z,90.20
2018-04-27T03:29:33.453Z,90.48
2018-04-27T03:30:33.522Z,90.10
2018-04-27T03:31:33.715Z,90.29
2018-04-27T03:32:33.899Z,90.10
2018-04-27T03:33:34.091Z,91.33
2018-04-27T03:34:34.280Z,91.24
2018-04-27T03:35:34.465Z,91.62
2018-04-27T03:36:34.680Z,91.90
2018-04-27T03:37:34.844Z,91.62
2018-04-27T03:38:35.041Z,91.71
2018-04-27T03:39:35.242Z,91.62
2018-04-27T03:40:35.449Z,91.62
2018-04-27T03:41:35.655Z,91.52
2018-04-27T03:42:35.853Z,91.90
2018-04-27T03:43:36.038Z,90.86
2018-04-27T03:44:36.234Z,90.86
2018-04-27T03:45:36.419Z,91.81
2018-04-27T03:46:36.596Z,91.62
2018-04-27T03:47:36.796Z,91.81
2018-04-27T03:48:37.004Z,91.81
2018-04-27T03:49:37.197Z,91.33
2018-04-27T03:50:37.385Z,91.81
2018-04-27T03:51:37.569Z,91.62
2018-04-27T03:52:37.760Z,91.52
2018-04-27T03:53:37.965Z,91.81
2018-04-27T03:54:38.139Z,91.33
2018-04-27T03:55:38.344Z,91.24
2018-04-27T03:56:38.535Z,91.43
2018-04-27T03:57:38.719Z,91.14
2018-04-27T03:58:38.914Z,91.24
2018-04-27T03:59:39.098Z,91.14
2018-04-27T04:00:39.294Z,91.14
2018-04-27T04:01:39.479Z,91.14
2018-04-27T04:02:39.648Z,91.05
2018-04-27T04:03:39.847Z,90.77
2018-04-27T04:04:40.053Z,91.62
2018-04-27T04:05:40.258Z,91.90
2018-04-27T04:06:40.437Z,92.09
2018-04-27T04:07:40.619Z,92.00
2018-04-27T04:08:40.825Z,92.38
2018-04-27T04:09:41.017Z,92.00
2018-04-27T04:10:41.204Z,91.90
2018-04-27T04:11:41.399Z,91.71
2018-04-27T04:12:41.580Z,91.71
2018-04-27T04:13:41.827Z,91.62
2018-04-27T04:14:41.988Z,91.62
2018-04-27T04:15:42.167Z,91.62
2018-04-27T04:16:42.356Z,91.43
2018-04-27T04:17:42.552Z,90.95
2018-04-27T04:18:42.734Z,90.86
2018-04-27T04:19:42.940Z,90.58
2018-04-27T04:20:43.116Z,90.86
2018-04-27T04:21:43.320Z,90.01
2018-04-27T04:22:43.521Z,90.43
2018-04-27T04:23:43.709Z,90.15
2018-04-27T04:24:43.899Z,90.15
2018-04-27T04:25:44.095Z,90.34
2018-04-27T04:26:44.307Z,90.53
2018-04-27T04:27:44.486Z,90.15
2018-04-27T04:28:44.687Z,89.86
2018-04-27T04:29:44.883Z,89.48
2018-04-27T04:30:45.085Z,89.39
2018-04-27T04:31:45.291Z,89.20
2018-04-27T04:32:45.551Z,88.73
2018-04-27T04:33:45.614Z,88.92
2018-04-27T04:34:45.817Z,88.63
2018-04-27T04:35:45.991Z,88.54
2018-04-27T04:36:46.195Z,87.97
2018-04-27T04:37:46.393Z,87.63
2018-04-27T04:38:46.581Z,87.02
2018-04-27T04:39:46.765Z,87.21
2018-04-27T04:40:46.967Z,87.40
2018-04-27T04:41:47.155Z,87.49
2018-04-27T04:42:47.359Z,87.77
2018-04-27T04:43:47.549Z,87.68
2018-04-27T04:44:47.727Z,87.21
2018-04-27T04:45:47.924Z,86.64
2018-04-27T04:46:48.132Z,86.49
2018-04-27T04:47:48.325Z,85.93
2018-04-27T04:48:48.504Z,84.88
2018-04-27T04:49:48.701Z,84.50
2018-04-27T04:50:48.880Z,83.78
2018-04-27T04:51:49.086Z,83.12
2018-04-27T04:52:49.275Z,82.84
2018-04-27T04:53:49.577Z,82.55
2018-04-27T04:54:49.637Z,83.03
2018-04-27T04:55:49.823Z,81.60
2018-04-27T04:56:50.029Z,81.41
2018-04-27T04:57:50.233Z,81.17
2018-04-27T04:58:50.413Z,79.74
2018-04-27T04:59:50.608Z,79.65
2018-04-27T05:00:50.794Z,77.70
2018-04-27T05:01:50.981Z,76.37
2018-04-27T05:02:51.186Z,77.12
2018-04-27T05:03:51.382Z,76.65
2018-04-27T05:04:51.569Z,77.84
2018-04-27T05:05:51.772Z,79.17
2018-04-27T05:06:51.967Z,79.65
2018-04-27T05:07:52.162Z,79.08
2018-04-27T05:08:52.372Z,79.74
2018-04-27T05:09:52.552Z,80.03
2018-04-27T05:10:52.813Z,80.51
2018-04-27T05:11:52.944Z,80.94
2018-04-27T05:12:53.137Z,80.94
2018-04-27T05:13:53.329Z,81.60
2018-04-27T05:14:53.598Z,81.41
2018-04-27T05:15:53.680Z,81.98
2018-04-27T05:16:53.876Z,82.42
2018-04-27T05:17:54.063Z,83.22
2018-04-27T05:18:54.267Z,84.36
2018-04-27T05:21:26.069Z,84.55
2018-04-27T05:22:26.245Z,84.17
2018-04-27T05:23:26.452Z,83.59
2018-04-27T05:24:26.654Z,83.88
2018-04-27T05:25:26.838Z,83.65
2018-04-27T05:26:27.022Z,83.84
2018-04-27T05:27:27.237Z,83.74
2018-04-27T05:28:27.424Z,84.31
2018-04-27T05:29:27.615Z,85.36
2018-04-27T05:30:27.848Z,85.64
2018-04-27T05:31:28.044Z,86.02
2018-04-27T05:32:28.111Z,86.68
2018-04-27T05:33:28.291Z,86.21
2018-04-27T05:34:28.481Z,86.49
2018-04-27T05:35:28.664Z,85.64
2018-04-27T05:36:28.845Z,84.31
2018-04-27T05:37:29.049Z,84.12
2018-04-27T05:38:29.240Z,84.55
2018-04-27T05:39:29.428Z,83.88
2018-04-27T05:40:29.682Z,82.55
2018-04-27T05:41:29.742Z,80.98
2018-04-27T05:42:29.948Z,77.73
2018-04-27T05:43:30.126Z,75.40
2018-04-27T05:44:30.310Z,72.49
2018-04-27T05:47:03.648Z,67.03
2018-04-27T05:48:02.312Z,66.31
2018-04-27T05:49:02.521Z,64.59
2018-04-27T05:50:02.701Z,63.20
2018-04-27T05:51:02.904Z,62.34
2018-04-27T05:52:03.102Z,60.84
2018-04-27T05:53:03.283Z,60.65
2018-04-27T05:54:03.472Z,59.60
2018-04-27T05:55:03.664Z,60.17
2018-04-27T05:56:03.859Z,58.14
2018-04-27T05:57:04.069Z,55.99
2018-04-27T05:58:04.271Z,54.60
2018-04-27T05:59:04.476Z,54.89
2018-04-27T06:00:04.669Z,55.84
2018-04-27T06:01:04.856Z,56.54
2018-04-27T06:02:05.042Z,55.49
2018-04-27T06:03:05.249Z,55.30
2018-04-27T06:04:05.448Z,55.01
2018-04-27T06:05:05.642Z,54.82
2018-04-27T06:06:05.840Z,53.25
2018-04-27T06:07:06.052Z,52.67
2018-04-27T06:08:06.264Z,51.84
2018-04-27T06:09:06.477Z,51.07
2018-04-27T06:10:06.722Z,51.62
2018-04-27T06:11:06.886Z,51.27
2018-04-27T06:12:07.097Z,50.52
2018-04-27T06:13:07.296Z,49.26
2018-04-27T06:14:07.600Z,50.48
2018-04-27T06:15:07.718Z,52.39
2018-04-27T06:16:07.955Z,53.49
2018-04-27T06:17:08.103Z,55.65
2018-04-27T06:18:08.302Z,57.43
2018-04-27T06:19:08.521Z,59.79
2018-04-27T06:20:08.723Z,60.62
2018-04-27T06:21:08.937Z,61.00
2018-04-27T06:22:09.144Z,62.12
2018-04-27T06:23:09.360Z,63.42
2018-04-27T06:24:09.564Z,64.56
2018-04-27T06:25:09.767Z,66.81
2018-04-27T06:26:09.964Z,67.19
2018-04-27T06:27:10.174Z,68.68
2018-04-27T06:28:10.390Z,69.00
2018-04-27T06:29:10.587Z,69.00
2018-04-27T06:30:10.776Z,68.81
2018-04-27T06:31:10.985Z,68.71
2018-04-27T06:32:11.194Z,67.86
2018-04-27T06:33:11.399Z,67.41
2018-04-27T06:34:11.590Z,65.92
2018-04-27T06:35:11.795Z,64.24
2018-04-27T06:36:11.999Z,62.75
2018-04-27T06:37:12.184Z,60.94
2018-04-27T06:38:12.388Z,60.68
2018-04-27T06:39:12.583Z,58.51
2018-04-27T06:40:12.771Z,57.02
2018-04-27T06:41:12.986Z,55.16
2018-04-27T06:42:13.182Z,53.08
2018-04-27T06:43:13.383Z,52.61
2018-04-27T06:44:13.580Z,52.39
2018-04-27T06:45:13.765Z,53.99
2018-04-27T06:46:13.986Z,54.27
2018-04-27T06:47:14.173Z,53.99
2018-04-27T06:48:14.365Z,53.51
2018-04-27T06:49:14.552Z,54.11
2018-04-27T06:50:14.764Z,53.56
2018-04-27T06:51:14.975Z,52.61
2018-04-27T06:52:15.165Z,52.13
2018-04-27T06:53:15.380Z,52.39
2018-04-27T06:54:15.590Z,54.56
2018-04-27T06:55:15.792Z,53.53
2018-04-27T06:56:16.006Z,52.15
2018-04-27T06:57:16.215Z,51.53
2018-04-27T06:58:16.401Z,54.02
2018-04-27T06:59:16.674Z,52.25
2018-04-27T07:00:16.801Z,50.43
2018-04-27T07:01:16.988Z,51.51
2018-04-27T07:02:17.198Z,50.81
2018-04-27T07:03:17.401Z,50.84
2018-04-27T07:04:17.597Z,51.29
2018-04-27T07:05:17.850Z,51.10
2018-04-27T07:06:18.011Z,50.31
2018-04-27T07:07:18.211Z,51.58
2018-04-27T07:08:18.407Z,51.22
2018-04-27T07:09:18.620Z,50.56
2018-04-27T07:10:18.835Z,50.74
2018-04-27T07:11:19.055Z,49.40
2018-04-27T07:12:19.259Z,49.14
2018-04-27T07:13:19.465Z,48.28
2018-04-27T07:14:19.675Z,49.00
2018-04-27T07:15:19.861Z,50.70
2018-04-27T07:16:20.052Z,52.10
2018-04-27T07:17:20.271Z,51.22
2018-04-27T07:18:20.468Z,49.69
2018-04-27T07:19:20.674Z,51.62
2018-04-27T07:20:20.869Z,51.39
2018-04-27T07:21:21.084Z,47.82
2018-04-27T07:22:21.305Z,45.93
2018-04-27T07:23:21.591Z,46.79
2018-04-27T07:24:21.679Z,47.49
2018-04-27T07:25:21.905Z,48.35
2018-04-27T07:26:22.123Z,47.01
2018-04-27T07:27:22.313Z,46.79
2018-04-27T07:28:22.502Z,45.26
2018-04-27T07:29:22.691Z,47.49
2018-04-27T07:30:22.906Z,48.64
2018-04-27T07:31:23.112Z,48.47
2018-04-27T07:32:23.331Z,48.69
2018-04-27T07:33:23.530Z,48.11
2018-04-27T07:34:23.712Z,45.81
2018-04-27T07:35:23.921Z,43.70
2018-04-27T07:36:24.137Z,43.84
2018-04-27T07:37:24.346Z,43.94
2018-04-27T07:38:24.545Z,43.84
2018-04-27T07:39:24.756Z,43.53
2018-04-27T07:40:24.964Z,44.49
2018-04-27T07:41:25.178Z,45.04
2018-04-27T07:42:25.383Z,45.93
2018-04-27T07:43:25.576Z,45.95
2018-04-27T07:45:57.688Z,43.84
2018-04-27T07:46:57.870Z,44.03
2018-04-27T07:47:58.075Z,43.87
2018-04-27T07:48:58.264Z,44.23
2018-04-27T07:49:58.465Z,45.18
2018-04-27T07:50:58.658Z,46.43
2018-04-27T07:51:58.861Z,46.91
2018-04-27T07:52:59.094Z,45.76
2018-04-27T07:53:59.293Z,45.09
2018-04-27T07:54:59.545Z,45.45
2018-04-27T07:55:59.742Z,45.47
2018-04-27T07:56:59.959Z,44.46
2018-04-27T07:58:00.161Z,44.02
2018-04-27T07:59:00.362Z,42.03
2018-04-27T08:00:00.567Z,42.32
2018-04-27T08:01:00.764Z,42.76
2018-04-27T08:02:00.985Z,43.65
2018-04-27T08:03:01.280Z,45.50
2018-04-27T08:04:01.364Z,45.35
2018-04-27T08:05:01.581Z,42.73
2018-04-27T08:06:01.838Z,42.18
2018-04-27T08:07:02.042Z,41.99
2018-04-27T08:08:02.269Z,41.33
2018-04-27T08:09:02.487Z,41.06
2018-04-27T08:10:02.691Z,41.05
2018-04-27T08:11:02.887Z,40.47
2018-04-27T08:12:03.080Z,40.35
2018-04-27T08:13:03.281Z,41.79
2018-04-27T08:14:03.472Z,42.33
2018-04-27T08:15:03.675Z,41.66
2018-04-27T08:16:03.881Z,45.00
2018-04-27T08:17:04.088Z,46.12
2018-04-27T08:18:04.294Z,46.84
2018-04-27T08:19:04.513Z,46.60
2018-04-27T08:20:04.707Z,46.65
2018-04-27T08:21:04.912Z,42.85
2018-04-27T08:22:05.106Z,40.01
2018-04-27T08:23:05.298Z,39.06
2018-04-27T08:24:05.501Z,39.47
2018-04-27T08:25:05.709Z,39.36
2018-04-27T08:26:05.926Z,38.91
2018-04-27T08:27:06.115Z,40.28
2018-04-27T08:28:06.327Z,39.04
2018-04-27T08:29:06.520Z,39.24
2018-04-27T08:30:06.741Z,39.22
2018-04-27T08:31:06.958Z,39.12
2018-04-27T08:32:07.180Z,40.49
2018-04-27T08:33:07.379Z,39.62
2018-04-27T08:34:07.603Z,39.33
2018-04-27T08:35:07.801Z,39.43
2018-04-27T08:36:08.027Z,40.58
2018-04-27T08:37:08.209Z,42.22
2018-04-27T08:38:08.419Z,39.74
2018-04-27T08:39:08.623Z,37.89
2018-04-27T08:40:08.836Z,39.81
2018-04-27T08:41:09.041Z,42.84
2018-04-27T08:42:09.267Z,44.90
2018-04-27T08:43:09.484Z,42.73
2018-04-27T08:44:09.672Z,41.60
2018-04-27T08:45:09.880Z,40.66
2018-04-27T08:46:10.079Z,39.43
2018-04-27T08:47:10.281Z,38.18
2018-04-27T08:48:10.479Z,38.47
2018-04-27T08:49:10.692Z,37.89
2018-04-27T08:50:10.908Z,37.79
2018-04-27T08:51:11.131Z,37.49
2018-04-27T08:52:11.332Z,37.85
2018-04-27T08:53:11.537Z,39.78
2018-04-27T08:54:11.742Z,38.10
2018-04-27T08:55:11.961Z,36.74
2018-04-27T08:56:12.242Z,39.14
2018-04-27T08:57:12.395Z,38.29
2018-04-27T08:58:12.595Z,36.77
2018-04-27T08:59:12.805Z,36.11
2018-04-27T09:00:13.005Z,36.19
2018-04-27T09:01:13.221Z,36.97
2018-04-27T09:02:13.411Z,36.69
2018-04-27T09:03:13.605Z,35.27
2018-04-27T09:04:13.837Z,35.75
2018-04-27T09:05:14.034Z,36.27
2018-04-27T09:06:14.252Z,37.22
2018-04-27T09:07:14.458Z,37.81
2018-04-27T09:08:14.656Z,36.41
2018-04-27T09:09:14.861Z,36.13
2018-04-27T09:10:15.070Z,34.67
2018-04-27T09:11:15.287Z,36.27
2018-04-27T09:12:15.471Z,36.89
2018-04-27T09:13:15.675Z,35.46
2018-04-27T09:14:15.892Z,34.50
2018-04-27T09:15:16.105Z,34.09
2018-04-27T09:16:16.318Z,34.37
2018-04-27T09:17:16.509Z,35.35
2018-04-27T09:18:16.727Z,35.14
2018-04-27T09:19:16.922Z,34.75
2018-04-27T09:20:17.110Z,34.81
2018-04-27T09:21:17.323Z,37.05
2018-04-27T09:22:17.548Z,40.25
2018-04-27T09:23:17.773Z,41.13
2018-04-27T09:24:17.987Z,41.75
2018-04-27T09:25:18.206Z,39.29
2018-04-27T09:26:18.405Z,37.84
2018-04-27T09:27:18.611Z,38.60
2018-04-27T09:28:18.804Z,39.18
2018-04-27T09:29:19.016Z,40.33
2018-04-27T09:30:19.213Z,38.74
2018-04-27T09:31:19.457Z,37.41
2018-04-27T09:32:19.674Z,35.02
2018-04-27T09:33:19.842Z,34.80
2018-04-27T09:34:20.051Z,38.91
2018-04-27T09:35:20.267Z,39.11
2018-04-27T09:36:20.467Z,40.12
2018-04-27T09:37:20.651Z,41.39
2018-04-27T09:38:20.867Z,39.49
2018-04-27T09:39:21.084Z,38.07
2018-04-27T09:40:21.278Z,37.12
2018-04-27T09:41:21.493Z,35.49
2018-04-27T09:42:21.706Z,34.58
2018-04-27T09:43:21.927Z,34.66
2018-04-27T09:44:22.113Z,39.04
2018-04-27T09:45:22.352Z,38.20
2018-04-27T09:46:22.551Z,38.93
2018-04-27T09:47:22.774Z,40.84
2018-04-27T09:48:22.968Z,43.24
2018-04-27T09:49:23.175Z,46.24
2018-04-27T09:50:23.383Z,45.28
2018-04-27T09:51:23.588Z,42.69
2018-04-27T09:52:23.805Z,44.63
2018-04-27T09:53:24.009Z,43.07
2018-04-27T09:54:24.200Z,41.94
2018-04-27T09:55:24.405Z,41.08
2018-04-27T09:56:24.618Z,40.50
2018-04-27T09:57:24.832Z,40.89
2018-04-27T09:58:25.084Z,39.91
2018-04-27T09:59:25.304Z,40.48
2018-04-27T10:00:25.508Z,40.87
2018-04-27T10:02:57.698Z,42.23
2018-04-27T10:03:57.875Z,41.75
2018-04-27T10:04:58.090Z,41.46
2018-04-27T10:05:58.313Z,41.27
2018-04-27T10:06:58.508Z,41.66
2018-04-27T10:07:58.700Z,40.79
2018-04-27T10:08:58.905Z,40.52
2018-04-27T10:09:59.121Z,37.22
2018-04-27T10:10:59.331Z,39.18
2018-04-27T10:11:59.552Z,37.89
2018-04-27T10:12:59.764Z,38.93
2018-04-27T10:13:59.973Z,39.56
2018-04-27T10:15:00.188Z,41.96
2018-04-27T10:16:00.362Z,41.67
2018-04-27T10:17:00.564Z,38.96
2018-04-27T10:19:32.396Z,36.72
2018-04-27T10:20:32.594Z,36.33
2018-04-27T10:21:32.769Z,38.81
2018-04-27T10:22:32.957Z,40.14
2018-04-27T10:23:33.142Z,42.44
2018-04-27T10:24:33.436Z,39.97
2018-04-27T10:25:33.513Z,40.23
2018-04-27T10:26:33.692Z,40.43
2018-04-27T10:27:33.906Z,39.03
2018-04-27T10:28:34.095Z,36.47
2018-04-27T10:29:34.296Z,34.96
2018-04-27T10:30:34.501Z,34.67
2018-04-27T10:31:34.693Z,35.52
2018-04-27T10:32:34.879Z,35.39
2018-04-27T10:33:35.095Z,37.57
2018-04-27T10:34:35.293Z,35.58
2018-04-27T10:37:07.480Z,35.89
2018-04-27T10:38:07.531Z,36.54
2018-04-27T10:39:07.727Z,37.79
2018-04-27T10:40:07.917Z,36.64
2018-04-27T10:41:08.116Z,34.14
2018-04-27T10:42:08.309Z,32.65
2018-04-27T10:43:08.552Z,33.26
2018-04-27T10:44:08.733Z,32.79
2018-04-27T10:45:08.967Z,32.49
2018-04-27T10:46:09.152Z,31.78
2018-04-27T10:47:09.349Z,30.29
2018-04-27T10:48:09.560Z,30.51
2018-04-27T10:49:09.771Z,28.58
2018-04-27T10:50:10.039Z,27.92
2018-04-27T10:51:10.213Z,26.65
2018-04-27T10:52:10.428Z,27.98
2018-04-27T10:53:10.636Z,28.09
2018-04-27T10:54:10.836Z,28.30
2018-04-27T10:55:11.041Z,28.00
2018-04-27T10:56:11.254Z,28.56
2018-04-27T10:57:11.455Z,27.80
2018-04-27T10:58:11.657Z,28.00
2018-04-27T10:59:11.938Z,25.96
2018-04-27T11:00:12.027Z,28.18
2018-04-27T11:01:12.222Z,25.96
2018-04-27T11:02:12.413Z,26.73
2018-04-27T11:03:12.629Z,26.22
2018-04-27T11:04:12.839Z,27.68
2018-04-27T11:05:13.037Z,27.39
2018-04-27T11:06:13.251Z,26.89
2018-04-27T11:07:13.463Z,27.75
2018-04-27T11:08:13.664Z,28.11
2018-04-27T11:09:13.871Z,29.25
2018-04-27T11:10:14.065Z,33.97
2018-04-27T11:11:14.254Z,32.20
2018-04-27T11:12:14.472Z,32.97
2018-04-27T11:13:14.690Z,33.64
2018-04-27T11:14:14.913Z,33.91
2018-04-27T11:15:15.121Z,31.41
2018-04-27T11:16:15.445Z,34.51
2018-04-27T11:17:15.540Z,35.06
2018-04-27T11:18:15.760Z,33.15
2018-04-27T11:19:15.959Z,34.11
2018-04-27T11:20:16.202Z,33.45
2018-04-27T11:21:16.396Z,33.08
2018-04-27T11:22:16.594Z,32.81
2018-04-27T11:23:16.787Z,31.35
2018-04-27T11:24:16.985Z,31.85
2018-04-27T11:25:17.204Z,30.40
2018-04-27T11:26:17.397Z,30.79
2018-04-27T11:27:17.593Z,30.58
2018-04-27T11:28:17.818Z,30.77
2018-04-27T11:29:18.005Z,30.88
2018-04-27T11:30:18.214Z,31.85
2018-04-27T11:31:18.412Z,31.64
2018-04-27T11:32:18.617Z,34.83
2018-04-27T11:33:18.805Z,32.70
2018-04-27T11:34:19.005Z,30.98
2018-04-27T11:35:19.199Z,29.83
2018-04-27T11:36:19.421Z,29.62
2018-04-27T11:37:19.633Z,29.02
2018-04-27T11:38:19.824Z,30.95
2018-04-27T11:39:20.016Z,33.26
2018-04-27T11:40:20.221Z,32.30
2018-04-27T11:41:20.583Z,31.24
2018-04-27T11:42:20.596Z,30.87
2018-04-27T11:43:20.810Z,33.84
2018-04-27T11:44:21.026Z,34.05
2018-04-27T11:45:21.221Z,29.41
2018-04-27T11:46:21.418Z,28.75
2018-04-27T11:47:21.615Z,29.14
2018-04-27T11:48:21.829Z,30.39
2018-04-27T11:49:22.029Z,29.13
2018-04-27T11:50:22.233Z,30.18
2018-04-27T11:51:22.448Z,29.80
2018-04-27T11:52:22.663Z,28.93
2018-04-27T11:53:22.878Z,29.43
2018-04-27T11:54:23.074Z,29.41
2018-04-27T11:55:23.291Z,29.79
2018-04-27T11:56:23.484Z,30.36
2018-04-27T11:57:23.681Z,29.88
2018-04-27T11:58:23.906Z,29.88
2018-04-27T11:59:24.185Z,30.36
2018-04-27T12:00:24.336Z,29.88
2018-04-27T12:01:24.534Z,28.81
2018-04-27T12:02:24.757Z,28.81
2018-04-27T12:03:24.945Z,32.84
2018-04-27T12:04:25.154Z,32.20
2018-04-27T12:05:25.358Z,31.53
2018-04-27T12:06:25.564Z,31.82
2018-04-27T12:07:25.755Z,31.03
2018-04-27T12:08:25.951Z,28.92
2018-04-27T12:09:26.166Z,27.86
2018-04-27T12:10:26.382Z,28.64
2018-04-27T12:11:26.595Z,29.03
2018-04-27T12:12:26.810Z,30.76
2018-04-27T12:13:27.005Z,30.18
2018-04-27T12:14:27.210Z,29.33
2018-04-27T12:15:27.404Z,27.98
2018-04-27T12:16:27.599Z,29.51
2018-04-27T12:17:27.793Z,31.15
2018-04-27T12:18:28.004Z,30.76
2018-04-27T12:19:28.204Z,31.92
2018-04-27T12:20:28.417Z,32.20
2018-04-27T12:21:28.611Z,33.54
2018-04-27T12:22:28.827Z,34.22
2018-04-27T12:23:29.030Z,30.18
2018-04-27T12:24:29.261Z,30.07
2018-04-27T12:25:29.447Z,32.09
2018-04-27T12:26:29.650Z,32.03
2018-04-27T12:27:29.862Z,32.52
2018-04-27T12:28:30.063Z,31.64
2018-04-27T12:29:30.266Z,32.68
2018-04-27T12:30:30.493Z,32.60
2018-04-27T12:31:30.773Z,34.14
2018-04-27T12:32:30.885Z,35.99
2018-04-27T12:33:31.100Z,35.79
2018-04-27T12:34:31.284Z,31.87
2018-04-27T12:35:31.610Z,32.44
2018-04-27T12:36:31.698Z,31.48
2018-04-27T12:37:31.902Z,29.83
2018-04-27T12:38:32.093Z,30.88
2018-04-27T12:39:32.284Z,30.32
2018-04-27T12:40:32.490Z,29.07
2018-04-27T12:41:32.676Z,31.00
2018-04-27T12:42:32.885Z,29.46
2018-04-27T12:43:33.077Z,29.84
2018-04-27T12:44:33.271Z,29.93
2018-04-27T12:45:33.459Z,30.49
2018-04-27T12:46:33.673Z,33.00
2018-04-27T12:47:33.862Z,31.05
2018-04-27T12:48:34.078Z,33.66
2018-04-27T12:49:34.275Z,32.70
2018-04-27T12:50:34.481Z,30.85
2018-04-27T12:51:34.669Z,34.12
2018-04-27T12:52:34.857Z,35.38
2018-04-27T12:53:35.050Z,33.72
2018-04-27T12:54:35.253Z,30.84
2018-04-27T12:55:35.446Z,30.74
2018-04-27T12:56:35.647Z,33.51
2018-04-27T12:59:09.495Z,35.16
2018-04-27T13:00:07.924Z,33.15
2018-04-27T13:01:08.116Z,33.91
2018-04-27T13:02:08.323Z,32.47
2018-04-27T13:03:08.514Z,33.34
2018-04-27T13:04:08.711Z,32.30
2018-04-27T13:05:08.913Z,32.78
2018-04-27T13:06:09.104Z,32.39
2018-04-27T13:07:09.340Z,30.77
2018-04-27T13:08:09.536Z,33.37
2018-04-27T13:09:09.736Z,28.93
2018-04-27T13:10:09.940Z,30.77
2018-04-27T13:11:10.134Z,30.97
2018-04-27T13:12:10.328Z,32.49
2018-04-27T13:13:10.519Z,31.05
2018-04-27T13:14:10.707Z,30.85
2018-04-27T13:15:10.901Z,30.84